createdAt,value
2022-08-12T00:00:48.672Z,15.15
2022-08-12T00:02:04.364Z,15.10
2022-08-12T00:02:49.723Z,15.14
2022-08-12T00:03:48.627Z,15.15
2022-08-12T00:04:48.621Z,15.17
2022-08-12T00:06:01.970Z,15.19
2022-08-12T00:06:49.625Z,15.19
2022-08-12T00:07:48.578Z,15.18
2022-08-12T00:08:48.569Z,15.15
2022-08-12T00:09:49.336Z,15.17
2022-08-12T00:10:48.538Z,15.15
2022-08-12T00:11:48.531Z,15.11
2022-08-12T00:12:48.514Z,15.06
2022-08-12T00:13:48.502Z,15.04
2022-08-12T00:14:48.488Z,15.03
2022-08-12T00:15:48.478Z,14.99
2022-08-12T00:16:48.463Z,14.99
2022-08-12T00:17:48.448Z,14.94
2022-08-12T00:18:48.442Z,14.92
2022-08-12T00:19:48.423Z,14.91
2022-08-12T00:20:48.412Z,14.89
2022-08-12T00:21:48.410Z,14.85
2022-08-12T00:22:58.837Z,14.79
2022-08-12T00:23:49.409Z,14.77
2022-08-12T00:24:48.367Z,14.73
2022-08-12T00:26:05.464Z,14.72
2022-08-12T00:26:49.370Z,14.70
2022-08-12T00:27:48.326Z,14.66
2022-08-12T00:28:48.315Z,14.62
2022-08-12T00:29:48.386Z,14.60
2022-08-12T00:30:48.284Z,14.59
2022-08-12T00:31:48.271Z,14.55
2022-08-12T00:32:54.392Z,14.54
2022-08-12T00:33:52.253Z,14.50
2022-08-12T00:34:49.237Z,14.50
2022-08-12T00:35:48.225Z,14.51
2022-08-12T00:36:50.304Z,14.51
2022-08-12T00:37:48.197Z,14.54
2022-08-12T00:38:48.185Z,14.54
2022-08-12T00:39:48.294Z,14.53
2022-08-12T00:40:48.156Z,14.55
2022-08-12T00:41:48.146Z,14.58
2022-08-12T00:42:48.129Z,14.59
2022-08-12T00:43:48.121Z,14.59
2022-08-12T00:44:48.428Z,14.59
2022-08-12T00:45:48.101Z,14.62
2022-08-12T00:46:48.079Z,14.60
2022-08-12T00:47:48.066Z,14.59
2022-08-12T00:48:48.052Z,14.60
2022-08-12T00:49:50.236Z,14.58
2022-08-12T00:50:48.031Z,14.60
2022-08-12T00:51:48.018Z,14.59
2022-08-12T00:52:48.003Z,14.59
2022-08-12T00:53:47.993Z,14.58
2022-08-12T00:54:47.982Z,14.59
2022-08-12T00:55:47.974Z,14.55
2022-08-12T00:56:47.956Z,14.53
2022-08-12T00:57:47.955Z,14.51
2022-08-12T00:58:47.924Z,14.54
2022-08-12T00:59:47.912Z,14.55
2022-08-12T01:00:47.902Z,14.58
2022-08-12T01:02:11.735Z,14.59
2022-08-12T01:02:48.906Z,14.58
2022-08-12T01:03:47.860Z,14.55
2022-08-12T01:04:47.847Z,14.54
2022-08-12T01:05:47.834Z,14.54
2022-08-12T01:06:50.967Z,14.50
2022-08-12T01:07:47.809Z,14.53
2022-08-12T01:08:47.795Z,14.53
2022-08-12T01:09:47.781Z,14.55
2022-08-12T01:10:47.774Z,14.58
2022-08-12T01:11:47.758Z,14.59
2022-08-12T01:12:47.746Z,14.58
2022-08-12T01:13:47.736Z,14.54
2022-08-12T01:14:47.718Z,14.50
2022-08-12T01:15:47.705Z,14.45
2022-08-12T01:16:47.693Z,14.41
2022-08-12T01:17:47.681Z,14.41
2022-08-12T01:18:47.682Z,14.40
2022-08-12T01:19:47.658Z,14.37
2022-08-12T01:20:47.644Z,14.36
2022-08-12T01:21:47.627Z,14.35
2022-08-12T01:22:47.611Z,14.33
2022-08-12T01:23:47.604Z,14.33
2022-08-12T01:24:47.590Z,14.32
2022-08-12T01:25:56.168Z,14.29
2022-08-12T01:26:48.592Z,14.28
2022-08-12T01:27:47.552Z,14.29
2022-08-12T01:28:47.535Z,14.28
2022-08-12T01:29:47.524Z,14.28
2022-08-12T01:30:47.512Z,14.30
2022-08-12T01:31:47.493Z,14.26
2022-08-12T01:32:47.484Z,14.22
2022-08-12T01:33:47.473Z,14.20
2022-08-12T01:34:47.458Z,14.18
2022-08-12T01:36:08.010Z,14.17
2022-08-12T01:36:48.458Z,14.12
2022-08-12T01:37:47.420Z,14.11
2022-08-12T01:38:47.409Z,14.12
2022-08-12T01:40:35.378Z,14.14
2022-08-12T01:40:48.467Z,14.15
2022-08-12T01:41:52.103Z,14.15
2022-08-12T01:42:48.386Z,14.14
2022-08-12T01:43:47.343Z,14.11
2022-08-12T01:44:47.328Z,14.10
2022-08-12T01:45:47.323Z,14.08
2022-08-12T01:46:47.302Z,14.00
2022-08-12T01:47:47.290Z,13.97
2022-08-12T01:48:47.276Z,13.92
2022-08-12T01:49:47.266Z,13.85
2022-08-12T01:50:47.254Z,13.83
2022-08-12T01:52:16.018Z,13.86
2022-08-12T01:52:48.256Z,13.87
2022-08-12T01:53:48.634Z,13.89
2022-08-12T01:54:47.205Z,13.89
2022-08-12T01:55:47.190Z,13.86
2022-08-12T01:56:47.172Z,13.77
2022-08-12T01:57:58.043Z,13.75
2022-08-12T01:58:48.178Z,13.77
2022-08-12T01:59:47.171Z,13.74
2022-08-12T02:00:55.545Z,13.68
2022-08-12T02:01:48.199Z,13.71
2022-08-12T02:02:47.094Z,13.70
2022-08-12T02:03:47.085Z,13.67
2022-08-12T02:04:47.071Z,13.65
2022-08-12T02:05:47.062Z,13.60
2022-08-12T02:06:47.051Z,13.59
2022-08-12T02:07:47.032Z,13.56
2022-08-12T02:08:47.018Z,13.59
2022-08-12T02:09:47.004Z,13.60
2022-08-12T02:10:49.093Z,13.63
2022-08-12T02:11:46.979Z,13.67
2022-08-12T02:12:46.971Z,13.71
2022-08-12T02:13:49.240Z,13.74
2022-08-12T02:14:46.939Z,13.77
2022-08-12T02:15:46.928Z,13.77
2022-08-12T02:16:46.912Z,13.77
2022-08-12T02:17:55.716Z,13.74
2022-08-12T02:18:47.917Z,13.77
2022-08-12T02:19:46.871Z,13.79
2022-08-12T02:20:51.330Z,13.79
2022-08-12T02:21:46.849Z,13.77
2022-08-12T02:22:46.840Z,13.78
2022-08-12T02:23:46.826Z,13.75
2022-08-12T02:24:46.809Z,13.70
2022-08-12T02:25:46.798Z,13.68
2022-08-12T02:26:46.782Z,13.65
2022-08-12T02:27:46.771Z,13.62
2022-08-12T02:28:46.760Z,13.62
2022-08-12T02:29:46.748Z,13.60
2022-08-12T02:30:46.732Z,13.59
2022-08-12T02:31:46.721Z,13.57
2022-08-12T02:32:46.707Z,13.57
2022-08-12T02:33:46.691Z,13.59
2022-08-12T02:34:46.680Z,13.57
2022-08-12T02:35:46.665Z,13.53
2022-08-12T02:36:46.658Z,13.52
2022-08-12T02:37:46.639Z,13.53
2022-08-12T02:38:46.626Z,13.52
2022-08-12T02:39:46.682Z,13.50
2022-08-12T02:40:46.602Z,13.46
2022-08-12T02:41:46.588Z,13.44
2022-08-12T02:42:46.573Z,13.42
2022-08-12T02:43:46.566Z,13.42
2022-08-12T02:44:46.546Z,13.35
2022-08-12T02:45:46.536Z,13.30
2022-08-12T02:46:46.531Z,13.20
2022-08-12T02:47:58.340Z,13.13
2022-08-12T02:48:47.529Z,13.08
2022-08-12T02:49:46.484Z,13.01
2022-08-12T02:50:46.470Z,12.97
2022-08-12T02:51:46.458Z,13.00
2022-08-12T02:52:46.446Z,13.04
2022-08-12T02:53:46.433Z,13.05
2022-08-12T02:54:47.450Z,13.12
2022-08-12T02:55:46.407Z,13.12
2022-08-12T02:56:50.684Z,13.11
2022-08-12T02:57:46.381Z,13.11
2022-08-12T02:58:46.368Z,13.11
2022-08-12T02:59:46.356Z,13.11
2022-08-12T03:00:46.425Z,13.11
2022-08-12T03:01:47.848Z,13.09
2022-08-12T03:02:46.317Z,13.11
2022-08-12T03:03:46.303Z,13.09
2022-08-12T03:04:46.293Z,13.04
2022-08-12T03:05:46.277Z,13.03
2022-08-12T03:06:46.265Z,12.98
2022-08-12T03:07:59.573Z,13.01
2022-08-12T03:08:53.710Z,13.08
2022-08-12T03:10:04.558Z,13.08
2022-08-12T03:10:47.486Z,13.13
2022-08-12T03:11:48.936Z,13.18
2022-08-12T03:12:49.781Z,13.19
2022-08-12T03:13:46.171Z,13.19
2022-08-12T03:14:46.162Z,13.18
2022-08-12T03:15:46.146Z,13.19
2022-08-12T03:16:46.135Z,13.16
2022-08-12T03:17:46.125Z,13.16
2022-08-12T03:18:47.141Z,13.16
2022-08-12T03:20:10.025Z,13.15
2022-08-12T03:20:47.112Z,13.11
2022-08-12T03:22:03.842Z,13.08
2022-08-12T03:22:47.088Z,12.98
2022-08-12T03:23:46.049Z,12.93
2022-08-12T03:24:46.034Z,12.90
2022-08-12T03:25:46.019Z,12.90
2022-08-12T03:26:46.005Z,12.87
2022-08-12T03:27:45.994Z,12.90
2022-08-12T03:28:45.982Z,12.87
2022-08-12T03:29:50.382Z,12.87
2022-08-12T03:30:45.953Z,12.85
2022-08-12T03:31:45.943Z,12.83
2022-08-12T03:32:45.977Z,12.85
2022-08-12T03:34:00.882Z,12.87
2022-08-12T03:34:46.931Z,12.86
2022-08-12T03:35:45.893Z,12.93
2022-08-12T03:36:45.875Z,12.93
2022-08-12T03:37:45.868Z,12.93
2022-08-12T03:38:45.850Z,12.93
2022-08-12T03:39:45.911Z,12.97
2022-08-12T03:40:45.825Z,12.93
2022-08-12T03:41:45.816Z,12.93
2022-08-12T03:42:45.800Z,12.95
2022-08-12T03:43:45.783Z,12.93
2022-08-12T03:44:45.769Z,12.90
2022-08-12T03:45:52.661Z,12.91
2022-08-12T03:46:46.774Z,12.94
2022-08-12T03:47:45.733Z,12.86
2022-08-12T03:48:45.720Z,12.82
2022-08-12T03:49:45.708Z,12.80
2022-08-12T03:50:45.694Z,12.75
2022-08-12T03:51:45.685Z,12.70
2022-08-12T03:52:45.670Z,12.65
2022-08-12T03:53:45.658Z,12.68
2022-08-12T03:54:45.643Z,12.67
2022-08-12T03:55:45.629Z,12.65
2022-08-12T03:56:45.616Z,12.61
2022-08-12T03:57:46.077Z,12.58
2022-08-12T03:58:45.591Z,12.55
2022-08-12T03:59:45.583Z,12.55
2022-08-12T04:00:45.673Z,12.54
2022-08-12T04:01:45.554Z,12.55
2022-08-12T04:02:45.540Z,12.55
2022-08-12T04:03:45.526Z,12.57
2022-08-12T04:04:45.902Z,12.58
2022-08-12T04:05:55.736Z,12.60
2022-08-12T04:06:45.492Z,12.58
2022-08-12T04:07:57.957Z,12.58
2022-08-12T04:08:46.491Z,12.57
2022-08-12T04:09:45.449Z,12.57
2022-08-12T04:10:45.438Z,12.60
2022-08-12T04:11:45.705Z,12.61
2022-08-12T04:12:45.411Z,12.62
2022-08-12T04:13:45.397Z,12.64
2022-08-12T04:14:45.386Z,12.65
2022-08-12T04:15:45.373Z,12.64
2022-08-12T04:16:45.360Z,12.64
2022-08-12T04:18:07.081Z,12.61
2022-08-12T04:18:46.362Z,12.61
2022-08-12T04:19:45.321Z,12.61
2022-08-12T04:20:45.314Z,12.64
2022-08-12T04:22:01.347Z,12.64
2022-08-12T04:22:46.312Z,12.62
2022-08-12T04:23:48.560Z,12.64
2022-08-12T04:24:48.838Z,12.64
2022-08-12T04:25:45.236Z,12.62
2022-08-12T04:26:45.227Z,12.64
2022-08-12T04:27:45.218Z,12.61
2022-08-12T04:28:45.201Z,12.61
2022-08-12T04:30:32.913Z,12.57
2022-08-12T04:30:46.207Z,12.57
2022-08-12T04:31:45.167Z,12.57
2022-08-12T04:32:45.306Z,12.57
2022-08-12T04:33:45.137Z,12.57
2022-08-12T04:34:45.132Z,12.60
2022-08-12T04:35:45.112Z,12.61
2022-08-12T04:36:45.102Z,12.64
2022-08-12T04:37:59.908Z,12.64
2022-08-12T04:38:46.106Z,12.62
2022-08-12T04:39:45.163Z,12.61
2022-08-12T04:40:45.048Z,12.58
2022-08-12T04:41:57.654Z,12.58
2022-08-12T04:42:46.064Z,12.58
2022-08-12T04:44:00.772Z,12.54
2022-08-12T04:44:46.028Z,12.55
2022-08-12T04:45:44.982Z,12.58
2022-08-12T04:46:44.974Z,12.61
2022-08-12T04:47:44.959Z,12.60
2022-08-12T04:48:44.945Z,12.62
2022-08-12T04:49:44.938Z,12.60
2022-08-12T04:50:44.917Z,12.61
2022-08-12T04:51:53.525Z,12.61
2022-08-12T04:52:45.926Z,12.62
2022-08-12T04:53:44.879Z,12.61
2022-08-12T04:54:44.865Z,12.60
2022-08-12T04:55:44.853Z,12.60
2022-08-12T04:56:44.841Z,12.61
2022-08-12T04:57:45.860Z,12.67
2022-08-12T04:58:47.404Z,12.67
2022-08-12T04:59:48.273Z,12.70
2022-08-12T05:00:44.793Z,12.73
2022-08-12T05:01:44.779Z,12.79
2022-08-12T05:02:44.810Z,12.83
2022-08-12T05:03:46.832Z,12.90
2022-08-12T05:04:44.735Z,12.95
2022-08-12T05:05:44.723Z,13.00
2022-08-12T05:06:44.710Z,13.04
2022-08-12T05:07:45.770Z,13.09
2022-08-12T05:08:45.716Z,13.13
2022-08-12T05:09:59.848Z,13.20
2022-08-12T05:10:45.690Z,13.28
2022-08-12T05:11:54.182Z,13.41
2022-08-12T05:12:45.667Z,13.53
2022-08-12T05:13:44.620Z,13.57
2022-08-12T05:14:44.607Z,13.70
2022-08-12T05:16:04.739Z,13.77
2022-08-12T05:16:45.918Z,13.95
2022-08-12T05:17:44.573Z,14.07
2022-08-12T05:18:45.993Z,14.18
2022-08-12T05:19:44.545Z,14.35
2022-08-12T05:20:44.532Z,14.53
2022-08-12T05:21:44.517Z,14.70
2022-08-12T05:22:44.504Z,14.89
2022-08-12T05:23:44.493Z,15.07
2022-08-12T05:24:44.477Z,15.31
2022-08-12T05:25:44.465Z,15.46
2022-08-12T05:26:44.451Z,15.67
2022-08-12T05:27:59.200Z,15.94
2022-08-12T05:28:45.465Z,16.16
2022-08-12T05:30:06.894Z,16.46
2022-08-12T05:30:45.431Z,16.74
2022-08-12T05:31:48.225Z,17.05
2022-08-12T05:32:44.375Z,17.34
2022-08-12T05:33:44.362Z,17.57
2022-08-12T05:34:44.353Z,17.86
2022-08-12T05:35:44.337Z,18.25
2022-08-12T05:36:44.323Z,18.66
2022-08-12T05:37:44.315Z,19.15
2022-08-12T05:38:44.297Z,19.59
2022-08-12T05:39:44.366Z,20.07
2022-08-12T05:40:44.270Z,20.55
2022-08-12T05:41:44.261Z,21.00
2022-08-12T05:42:44.407Z,21.48
2022-08-12T05:43:44.233Z,21.83
2022-08-12T05:44:44.219Z,22.26
2022-08-12T05:45:44.976Z,22.70
2022-08-12T05:46:44.197Z,23.08
2022-08-12T05:47:53.697Z,23.41
2022-08-12T05:48:45.203Z,23.84
2022-08-12T05:49:44.161Z,24.24
2022-08-12T05:50:44.142Z,24.66
2022-08-12T05:51:44.132Z,24.99
2022-08-12T05:52:44.118Z,25.32
2022-08-12T05:53:44.109Z,25.66
2022-08-12T05:54:57.046Z,26.00
2022-08-12T05:55:45.115Z,26.31
2022-08-12T05:56:44.069Z,26.62
2022-08-12T05:57:44.058Z,26.90
2022-08-12T05:58:44.045Z,27.25
2022-08-12T05:59:44.030Z,27.51
2022-08-12T06:00:44.014Z,27.70
2022-08-12T06:02:10.636Z,27.75
2022-08-12T06:02:45.079Z,27.59
2022-08-12T06:03:43.978Z,26.97
2022-08-12T06:04:43.966Z,26.05
2022-08-12T06:05:54.783Z,25.32
2022-08-12T06:06:44.968Z,24.08
2022-08-12T06:08:01.223Z,23.43
2022-08-12T06:08:44.943Z,22.81
2022-08-12T06:09:43.902Z,22.29
2022-08-12T06:10:43.884Z,21.89
2022-08-12T06:12:04.697Z,21.58
2022-08-12T06:12:44.888Z,21.29
2022-08-12T06:13:54.046Z,21.02
2022-08-12T06:14:44.868Z,20.80
2022-08-12T06:15:43.825Z,20.67
2022-08-12T06:16:43.812Z,20.60
2022-08-12T06:17:43.798Z,20.55
2022-08-12T06:18:43.786Z,20.56
2022-08-12T06:20:27.181Z,20.75
2022-08-12T06:20:43.866Z,21.21
2022-08-12T06:21:43.747Z,22.22
2022-08-12T06:22:43.733Z,23.48
2022-08-12T06:23:43.720Z,24.80
2022-08-12T06:24:43.708Z,25.99
2022-08-12T06:25:43.711Z,27.02
2022-08-12T06:26:43.682Z,27.98
2022-08-12T06:28:06.302Z,28.72
2022-08-12T06:28:44.684Z,29.38
2022-08-12T06:30:08.139Z,29.69
2022-08-12T06:30:49.752Z,29.27
2022-08-12T06:31:44.654Z,29.60
2022-08-12T06:32:51.930Z,30.31
2022-08-12T06:33:55.776Z,30.75
2022-08-12T06:35:26.182Z,30.88
2022-08-12T06:35:48.313Z,31.43
2022-08-12T06:36:43.558Z,31.80
2022-08-12T06:37:43.536Z,32.21
2022-08-12T06:38:44.561Z,32.52
2022-08-12T06:39:43.561Z,32.46
2022-08-12T06:40:43.507Z,32.16
2022-08-12T06:42:04.843Z,32.23
2022-08-12T06:42:44.825Z,32.40
2022-08-12T06:44:05.582Z,32.49
2022-08-12T06:44:44.476Z,32.19
2022-08-12T06:45:45.217Z,31.22
2022-08-12T06:46:43.421Z,31.05
2022-08-12T06:47:43.411Z,30.99
2022-08-12T06:48:43.397Z,30.77
2022-08-12T06:49:43.382Z,31.52
2022-08-12T06:50:43.365Z,31.97
2022-08-12T06:51:54.471Z,32.21
2022-08-12T06:52:44.379Z,32.49
2022-08-12T06:53:43.334Z,32.31
2022-08-12T06:54:43.317Z,32.68
2022-08-12T06:55:57.816Z,33.11
2022-08-12T06:57:03.467Z,33.12
2022-08-12T06:58:06.853Z,33.43
2022-08-12T06:58:44.293Z,33.46
2022-08-12T06:59:43.243Z,33.31
2022-08-12T07:00:43.272Z,33.50
2022-08-12T07:01:51.024Z,33.81
2022-08-12T07:02:44.675Z,33.79
2022-08-12T07:03:43.206Z,33.87
2022-08-12T07:04:43.182Z,33.98
2022-08-12T07:05:43.182Z,34.13
2022-08-12T07:06:43.164Z,34.21
2022-08-12T07:07:43.157Z,34.13
2022-08-12T07:08:43.151Z,33.87
2022-08-12T07:10:06.818Z,34.08
2022-08-12T07:10:44.137Z,34.25
2022-08-12T07:11:43.106Z,34.47
2022-08-12T07:12:44.187Z,34.62
2022-08-12T07:14:02.605Z,34.70
2022-08-12T07:14:48.816Z,34.64
2022-08-12T07:15:43.047Z,34.90
2022-08-12T07:16:43.032Z,34.55
2022-08-12T07:17:43.026Z,34.51
2022-08-12T07:18:43.016Z,34.57
2022-08-12T07:19:45.350Z,34.52
2022-08-12T07:20:53.437Z,34.71
2022-08-12T07:21:59.776Z,34.80
2022-08-12T07:22:43.998Z,34.51
2022-08-12T07:23:42.961Z,34.73
2022-08-12T07:24:42.948Z,34.55
2022-08-12T07:25:42.928Z,34.77
2022-08-12T07:26:44.266Z,35.02
2022-08-12T07:27:42.898Z,35.30
2022-08-12T07:28:42.886Z,35.45
2022-08-12T07:30:02.828Z,34.90
2022-08-12T07:30:43.889Z,34.06
2022-08-12T07:31:42.852Z,32.27
2022-08-12T07:32:43.083Z,31.66
2022-08-12T07:33:42.823Z,31.90
2022-08-12T07:34:42.811Z,31.36
2022-08-12T07:35:42.801Z,31.06
2022-08-12T07:36:42.787Z,31.90
2022-08-12T07:37:42.767Z,32.64
2022-08-12T07:38:42.758Z,33.02
2022-08-12T07:39:50.855Z,33.01
2022-08-12T07:40:43.763Z,33.02
2022-08-12T07:41:42.722Z,33.02
2022-08-12T07:42:42.802Z,33.58
2022-08-12T07:43:42.693Z,33.79
2022-08-12T07:44:42.682Z,33.95
2022-08-12T07:45:42.671Z,34.10
2022-08-12T07:46:42.653Z,33.99
2022-08-12T07:47:42.643Z,33.30
2022-08-12T07:48:42.639Z,32.16
2022-08-12T07:50:04.831Z,31.24
2022-08-12T07:50:43.634Z,30.39
2022-08-12T07:51:42.592Z,29.36
2022-08-12T07:52:43.010Z,28.97
2022-08-12T07:53:59.829Z,28.27
2022-08-12T07:54:43.586Z,28.78
2022-08-12T07:55:42.541Z,29.38
2022-08-12T07:56:42.526Z,29.93
2022-08-12T07:57:42.524Z,29.87
2022-08-12T07:58:46.899Z,30.23
2022-08-12T07:59:42.486Z,30.27
2022-08-12T08:00:42.482Z,29.76
2022-08-12T08:01:42.519Z,29.23
2022-08-12T08:02:42.514Z,28.98
2022-08-12T08:03:47.572Z,28.01
2022-08-12T08:04:43.461Z,26.83
2022-08-12T08:05:42.415Z,26.51
2022-08-12T08:06:42.400Z,26.38
2022-08-12T08:07:42.394Z,25.85
2022-08-12T08:08:42.378Z,25.26
2022-08-12T08:09:42.364Z,24.89
2022-08-12T08:10:42.363Z,24.23
2022-08-12T08:11:42.337Z,24.13
2022-08-12T08:12:42.607Z,23.83
2022-08-12T08:13:42.323Z,23.78
2022-08-12T08:14:42.301Z,23.41
2022-08-12T08:16:02.462Z,23.41
2022-08-12T08:16:43.312Z,23.40
2022-08-12T08:17:42.266Z,23.55
2022-08-12T08:18:42.250Z,23.69
2022-08-12T08:19:48.595Z,23.78
2022-08-12T08:20:43.268Z,23.81
2022-08-12T08:21:42.216Z,23.80
2022-08-12T08:22:42.678Z,23.91
2022-08-12T08:23:42.184Z,24.02
2022-08-12T08:24:42.187Z,23.81
2022-08-12T08:25:42.168Z,23.80
2022-08-12T08:26:42.155Z,23.76
2022-08-12T08:27:42.137Z,23.76
2022-08-12T08:28:42.133Z,23.56
2022-08-12T08:29:42.120Z,23.41
2022-08-12T08:30:42.100Z,23.37
2022-08-12T08:31:45.336Z,23.43
2022-08-12T08:32:42.122Z,23.44
2022-08-12T08:34:05.415Z,23.40
2022-08-12T08:34:53.093Z,23.34
2022-08-12T08:35:47.624Z,23.32
2022-08-12T08:36:42.338Z,23.24
2022-08-12T08:37:42.016Z,23.28
2022-08-12T08:38:42.003Z,23.18
2022-08-12T08:39:43.108Z,23.25
2022-08-12T08:40:41.977Z,23.20
2022-08-12T08:42:16.494Z,23.20
2022-08-12T08:42:45.036Z,23.20
2022-08-12T08:43:44.306Z,23.31
2022-08-12T08:44:41.918Z,23.28
2022-08-12T08:45:41.914Z,23.36
2022-08-12T08:46:41.904Z,23.36
2022-08-12T08:47:41.891Z,23.36
2022-08-12T08:48:41.881Z,23.25
2022-08-12T08:49:41.853Z,22.99
2022-08-12T08:50:41.854Z,22.94
2022-08-12T08:51:41.840Z,22.99
2022-08-12T08:52:41.950Z,22.99
2022-08-12T08:53:41.818Z,22.98
2022-08-12T08:54:41.816Z,22.99
2022-08-12T08:56:03.605Z,22.94
2022-08-12T08:56:42.803Z,23.00
2022-08-12T08:57:43.622Z,23.03
2022-08-12T08:58:41.751Z,22.99
2022-08-12T08:59:41.737Z,22.83
2022-08-12T09:00:41.727Z,22.62
2022-08-12T09:01:44.277Z,22.55
2022-08-12T09:02:42.067Z,22.47
2022-08-12T09:05:07.350Z,22.39
2022-08-12T09:05:11.739Z,22.39
2022-08-12T09:06:01.511Z,22.44
2022-08-12T09:06:53.611Z,22.44
2022-08-12T09:07:43.909Z,22.38
2022-08-12T09:08:42.657Z,22.38
2022-08-12T09:10:03.279Z,22.38
2022-08-12T09:10:44.899Z,22.39
2022-08-12T09:12:06.955Z,22.47
2022-08-12T09:12:42.606Z,22.50
2022-08-12T09:14:10.554Z,22.59
2022-08-12T09:14:42.580Z,22.66
2022-08-12T09:15:41.830Z,22.70
2022-08-12T09:16:41.605Z,22.69
2022-08-12T09:17:42.990Z,22.72
2022-08-12T09:18:41.508Z,22.68
2022-08-12T09:19:41.488Z,22.69
2022-08-12T09:20:42.487Z,22.78
2022-08-12T09:21:54.828Z,22.85
2022-08-12T09:22:42.484Z,22.84
2022-08-12T09:23:59.956Z,22.84
2022-08-12T09:24:42.456Z,22.81
2022-08-12T09:25:42.784Z,22.88
2022-08-12T09:26:46.568Z,22.91
2022-08-12T09:28:03.315Z,22.99
2022-08-12T09:28:42.405Z,23.02
2022-08-12T09:30:10.377Z,23.09
2022-08-12T09:30:42.861Z,23.15
2022-08-12T09:32:03.802Z,23.15
2022-08-12T09:33:05.081Z,23.06
2022-08-12T09:34:28.729Z,23.08
2022-08-12T09:34:43.747Z,23.06
2022-08-12T09:35:43.165Z,23.05
2022-08-12T09:36:57.787Z,22.96
2022-08-12T09:37:57.689Z,22.93
2022-08-12T09:38:58.561Z,23.00
2022-08-12T09:40:04.277Z,23.05
2022-08-12T09:41:02.491Z,23.12
2022-08-12T09:42:09.807Z,23.03
2022-08-12T09:43:00.981Z,23.03
2022-08-12T09:43:53.346Z,22.99
2022-08-12T09:44:42.396Z,23.02
2022-08-12T09:46:06.429Z,22.96
2022-08-12T09:46:42.290Z,22.90
2022-08-12T09:47:41.127Z,22.88
2022-08-12T09:48:44.592Z,22.88
2022-08-12T09:49:42.477Z,22.88
2022-08-12T09:50:41.096Z,22.88
2022-08-12T09:51:44.005Z,22.94
2022-08-12T09:52:41.061Z,23.06
2022-08-12T09:53:41.058Z,23.15
2022-08-12T09:54:43.011Z,23.15
2022-08-12T09:56:05.696Z,23.02
2022-08-12T09:56:59.582Z,22.91
2022-08-12T09:58:45.968Z,22.72
2022-08-12T09:58:58.637Z,22.73
2022-08-12T10:00:16.437Z,22.69
2022-08-12T10:00:52.217Z,22.65
2022-08-12T10:02:49.892Z,22.69
2022-08-12T10:02:53.071Z,22.70
2022-08-12T10:04:03.243Z,22.78
2022-08-12T10:04:51.465Z,22.85
2022-08-12T10:06:19.752Z,22.90
2022-08-12T10:06:53.886Z,22.93
2022-08-12T10:07:41.898Z,23.05
2022-08-12T10:08:40.861Z,23.05
2022-08-12T10:09:57.446Z,23.08
2022-08-12T10:10:42.630Z,23.05
2022-08-12T10:12:07.750Z,23.05
2022-08-12T10:12:43.133Z,23.06
2022-08-12T10:13:41.970Z,23.06
2022-08-12T10:14:40.786Z,23.08
2022-08-12T10:16:02.552Z,23.20
2022-08-12T10:16:41.786Z,23.24
2022-08-12T10:17:56.991Z,23.27
2022-08-12T10:18:51.674Z,23.20
2022-08-12T10:19:41.755Z,23.21
2022-08-12T10:20:41.727Z,23.18
2022-08-12T10:21:40.686Z,23.18
2022-08-12T10:22:41.334Z,23.23
2022-08-12T10:23:45.858Z,23.27
2022-08-12T10:24:40.648Z,23.21
2022-08-12T10:26:35.247Z,23.15
2022-08-12T10:26:41.652Z,23.12
2022-08-12T10:28:04.475Z,23.08
2022-08-12T10:28:41.630Z,22.88
2022-08-12T10:30:38.642Z,22.73
2022-08-12T10:30:46.832Z,22.73
2022-08-12T10:31:46.922Z,22.84
2022-08-12T10:32:45.464Z,22.96
2022-08-12T10:33:55.082Z,22.98
2022-08-12T10:34:53.213Z,23.02
2022-08-12T10:35:41.542Z,23.06
2022-08-12T10:36:42.967Z,23.05
2022-08-12T10:38:38.004Z,23.08
2022-08-12T10:38:44.151Z,22.98
2022-08-12T10:40:01.942Z,22.87
2022-08-12T10:40:41.532Z,22.81
2022-08-12T10:41:58.339Z,22.73
2022-08-12T10:42:46.120Z,22.70
2022-08-12T10:43:54.316Z,22.70
2022-08-12T10:44:41.425Z,22.73
2022-08-12T10:45:40.375Z,22.84
2022-08-12T10:46:40.357Z,22.88
2022-08-12T10:48:19.222Z,22.90
2022-08-12T10:48:41.369Z,23.02
2022-08-12T10:50:03.659Z,23.15
2022-08-12T10:50:58.533Z,23.17
2022-08-12T10:51:51.876Z,23.15
2022-08-12T10:52:41.319Z,23.21
2022-08-12T10:53:45.843Z,23.28
2022-08-12T10:54:41.406Z,23.25
2022-08-12T10:55:40.241Z,23.25
2022-08-12T10:56:40.231Z,23.28
2022-08-12T10:58:13.744Z,23.37
2022-08-12T10:58:41.241Z,23.43
2022-08-12T11:00:29.769Z,23.50
2022-08-12T11:00:45.576Z,23.50
2022-08-12T11:04:16.822Z,23.54
2022-08-12T11:04:19.323Z,23.58
2022-08-12T11:04:23.366Z,23.44
2022-08-12T11:04:48.949Z,23.40
2022-08-12T11:07:02.721Z,23.44
2022-08-12T11:07:07.465Z,23.39
2022-08-12T11:08:36.831Z,23.44
2022-08-12T11:08:43.218Z,23.37
2022-08-12T11:09:41.440Z,23.24
2022-08-12T11:10:41.130Z,23.18
2022-08-12T11:12:36.981Z,23.17
2022-08-12T11:12:59.431Z,23.17
2022-08-12T11:13:48.359Z,23.17
2022-08-12T11:14:50.351Z,23.10
2022-08-12T11:16:19.159Z,23.15
2022-08-12T11:16:40.987Z,23.27
2022-08-12T11:17:52.589Z,23.43
2022-08-12T11:18:40.958Z,23.48
2022-08-12T11:19:39.918Z,23.56
2022-08-12T11:20:39.903Z,23.59
2022-08-12T11:21:56.041Z,23.63
2022-08-12T11:22:41.266Z,23.61
2022-08-12T11:23:39.866Z,23.55
2022-08-12T11:24:39.855Z,23.54
2022-08-12T11:25:56.128Z,23.59
2022-08-12T11:26:40.989Z,23.65
2022-08-12T11:27:40.198Z,23.69
2022-08-12T11:28:39.805Z,23.66
2022-08-12T11:30:02.062Z,23.61
2022-08-12T11:30:40.808Z,23.58
2022-08-12T11:31:40.959Z,23.66
2022-08-12T11:32:40.770Z,23.78
2022-08-12T11:34:05.665Z,23.69
2022-08-12T11:34:52.798Z,23.66
2022-08-12T11:35:40.737Z,23.68
2022-08-12T11:36:40.696Z,23.69
2022-08-12T11:37:58.727Z,23.68
2022-08-12T11:38:40.663Z,23.69
2022-08-12T11:40:42.542Z,23.66
2022-08-12T11:41:39.592Z,23.63
2022-08-12T11:42:46.365Z,23.63
2022-08-12T11:43:50.339Z,23.63
2022-08-12T11:44:43.186Z,23.68
2022-08-12T11:45:39.542Z,23.74
2022-08-12T11:46:39.526Z,23.77
2022-08-12T11:47:40.498Z,23.81
2022-08-12T11:48:51.328Z,23.83
2022-08-12T11:49:40.517Z,23.84
2022-08-12T11:50:42.074Z,23.91
2022-08-12T11:51:39.740Z,23.92
2022-08-12T11:52:56.686Z,23.86
2022-08-12T11:53:56.883Z,23.78
2022-08-12T11:54:40.454Z,23.69
2022-08-12T11:55:46.786Z,23.76
2022-08-12T11:56:42.807Z,23.84
2022-08-12T11:58:07.535Z,23.91
2022-08-12T12:02:01.924Z,24.01
2022-08-12T12:02:40.573Z,24.01
2022-08-12T12:03:43.967Z,23.96
2022-08-12T12:04:40.328Z,23.92
2022-08-12T12:05:41.945Z,23.92
2022-08-12T12:06:41.336Z,23.95
2022-08-12T12:08:40.619Z,23.96
2022-08-12T12:08:42.667Z,23.99
2022-08-12T12:09:52.202Z,24.03
2022-08-12T12:10:40.244Z,24.03
2022-08-12T12:11:49.224Z,24.01
2022-08-12T12:12:41.462Z,24.13
2022-08-12T12:14:08.323Z,24.11
2022-08-12T12:14:40.192Z,24.08
2022-08-12T12:15:41.126Z,24.02
2022-08-12T12:16:39.947Z,23.91
2022-08-12T12:17:39.132Z,23.91
2022-08-12T12:18:39.115Z,23.88
2022-08-12T12:19:45.275Z,23.84
2022-08-12T12:20:40.122Z,23.86
2022-08-12T12:21:48.695Z,23.84
2022-08-12T12:22:40.100Z,23.95
2022-08-12T12:23:39.057Z,24.02
2022-08-12T12:24:40.078Z,24.06
2022-08-12T12:26:06.482Z,24.06
2022-08-12T12:26:40.050Z,24.03
2022-08-12T12:28:00.685Z,24.06
2022-08-12T12:28:40.033Z,23.96
2022-08-12T12:30:13.720Z,23.93
2022-08-12T12:30:40.024Z,23.88
2022-08-12T12:32:10.824Z,23.99
2022-08-12T12:32:40.289Z,24.03
2022-08-12T12:33:56.731Z,24.06
2022-08-12T12:34:39.944Z,24.18
2022-08-12T12:36:06.616Z,24.28
2022-08-12T12:36:39.921Z,24.33
2022-08-12T12:38:03.821Z,24.33
2022-08-12T12:38:39.899Z,24.33
2022-08-12T12:39:55.399Z,24.36
2022-08-12T12:40:39.922Z,24.35
2022-08-12T12:42:43.158Z,24.32
2022-08-12T12:42:43.281Z,24.35
2022-08-12T12:43:43.609Z,24.38
2022-08-12T12:44:50.801Z,24.42
2022-08-12T12:45:44.499Z,24.47
2022-08-12T12:46:39.801Z,24.48
2022-08-12T12:47:38.753Z,24.54
2022-08-12T12:48:44.105Z,24.54
2022-08-12T12:49:38.727Z,24.57
2022-08-12T12:50:45.314Z,24.54
2022-08-12T12:51:48.640Z,24.43
2022-08-12T12:52:39.862Z,24.45
2022-08-12T12:54:07.035Z,24.40
2022-08-12T12:54:39.690Z,24.43
2022-08-12T12:55:38.643Z,24.48
2022-08-12T12:56:38.630Z,24.32